sensor_id;sensor_type;location;lat;lon;timestamp;temperature;humidity
41557;DHT22;27720;51.992;5.890;2022-12-20T00:00:03;10.40;99.90
41557;DHT22;27720;51.992;5.890;2022-12-20T00:02:30;10.50;99.90
41557;DHT22;27720;51.992;5.890;2022-12-20T00:04:56;10.50;99.90
41557;DHT22;27720;51.992;5.890;2022-12-20T00:07:21;10.50;99.90
41557;DHT22;27720;51.992;5.890;2022-12-20T00:09:47;10.50;99.90
41557;DHT22;27720;51.992;5.890;2022-12-20T00:12:13;10.50;99.90
41557;DHT22;27720;51.992;5.890;2022-12-20T00:14:39;10.50;99.90
41557;DHT22;27720;51.992;5.890;2022-12-20T00:17:05;10.50;99.90
41557;DHT22;27720;51.992;5.890;2022-12-20T00:19:30;10.60;99.90
41557;DHT22;27720;51.992;5.890;2022-12-20T00:21:56;10.50;99.90
41557;DHT22;27720;51.992;5.890;2022-12-20T00:24:22;10.60;99.90
41557;DHT22;27720;51.992;5.890;2022-12-20T00:26:48;10.60;99.90
41557;DHT22;27720;51.992;5.890;2022-12-20T00:29:13;10.70;99.90
41557;DHT22;27720;51.992;5.890;2022-12-20T00:31:39;10.70;99.90
41557;DHT22;27720;51.992;5.890;2022-12-20T00:34:08;10.70;99.90
41557;DHT22;27720;51.992;5.890;2022-12-20T00:36:39;10.80;99.90
41557;DHT22;27720;51.992;5.890;2022-12-20T00:39:06;10.90;99.90
41557;DHT22;27720;51.992;5.890;2022-12-20T00:41:33;10.90;99.90
41557;DHT22;27720;51.992;5.890;2022-12-20T00:43:59;10.90;99.90
41557;DHT22;27720;51.992;5.890;2022-12-20T00:46:26;10.90;99.90
41557;DHT22;27720;51.992;5.890;2022-12-20T00:48:53;10.90;99.90
41557;DHT22;27720;51.992;5.890;2022-12-20T00:51:22;10.90;99.90
41557;DHT22;27720;51.992;5.890;2022-12-20T00:53:51;10.90;99.90
41557;DHT22;27720;51.992;5.890;2022-12-20T00:56:17;10.90;99.90
41557;DHT22;27720;51.992;5.890;2022-12-20T00:58:43;10.90;99.90
41557;DHT22;27720;51.992;5.890;2022-12-20T01:03:47;11.00;99.90
41557;DHT22;27720;51.992;5.890;2022-12-20T01:06:13;11.10;99.90
41557;DHT22;27720;51.992;5.890;2022-12-20T01:08:40;11.10;99.90
41557;DHT22;27720;51.992;5.890;2022-12-20T01:11:12;11.00;99.90
41557;DHT22;27720;51.992;5.890;2022-12-20T01:13:42;11.00;99.90
41557;DHT22;27720;51.992;5.890;2022-12-20T01:16:41;11.00;99.90
41557;DHT22;27720;51.992;5.890;2022-12-20T01:19:07;11.00;99.90
41557;DHT22;27720;51.992;5.890;2022-12-20T01:21:35;11.00;99.90
41557;DHT22;27720;51.992;5.890;2022-12-20T01:24:01;11.10;99.90
41557;DHT22;27720;51.992;5.890;2022-12-20T01:26:28;11.10;99.90
41557;DHT22;27720;51.992;5.890;2022-12-20T01:28:56;11.20;99.90
41557;DHT22;27720;51.992;5.890;2022-12-20T01:31:23;11.20;99.90
41557;DHT22;27720;51.992;5.890;2022-12-20T01:33:50;11.20;99.90
41557;DHT22;27720;51.992;5.890;2022-12-20T01:36:23;11.30;99.90
41557;DHT22;27720;51.992;5.890;2022-12-20T01:38:50;11.30;99.90
41557;DHT22;27720;51.992;5.890;2022-12-20T01:41:19;11.30;99.90
41557;DHT22;27720;51.992;5.890;2022-12-20T01:43:54;11.30;99.90
41557;DHT22;27720;51.992;5.890;2022-12-20T01:46:22;11.30;99.90
41557;DHT22;27720;51.992;5.890;2022-12-20T01:48:58;11.30;99.90
41557;DHT22;27720;51.992;5.890;2022-12-20T01:51:25;11.30;99.90
41557;DHT22;27720;51.992;5.890;2022-12-20T01:53:55;11.20;99.90
41557;DHT22;27720;51.992;5.890;2022-12-20T01:56:23;11.20;99.90
41557;DHT22;27720;51.992;5.890;2022-12-20T01:58:50;11.20;99.90
41557;DHT22;27720;51.992;5.890;2022-12-20T02:01:17;11.20;99.90
41557;DHT22;27720;51.992;5.890;2022-12-20T02:03:44;11.20;99.90
41557;DHT22;27720;51.992;5.890;2022-12-20T02:06:18;11.10;99.90
41557;DHT22;27720;51.992;5.890;2022-12-20T02:08:46;11.20;99.90
41557;DHT22;27720;51.992;5.890;2022-12-20T02:11:39;11.10;99.90
41557;DHT22;27720;51.992;5.890;2022-12-20T02:20:18;11.00;99.90
41557;DHT22;27720;51.992;5.890;2022-12-20T02:26:03;10.90;99.90
41557;DHT22;27720;51.992;5.890;2022-12-20T02:31:57;10.90;99.90
41557;DHT22;27720;51.992;5.890;2022-12-20T02:34:25;10.90;99.90
41557;DHT22;27720;51.992;5.890;2022-12-20T02:36:52;10.90;99.90
41557;DHT22;27720;51.992;5.890;2022-12-20T02:39:18;10.90;99.90
41557;DHT22;27720;51.992;5.890;2022-12-20T02:42:09;10.90;99.90
41557;DHT22;27720;51.992;5.890;2022-12-20T02:44:40;10.90;99.90
41557;DHT22;27720;51.992;5.890;2022-12-20T02:47:32;10.90;99.90
41557;DHT22;27720;51.992;5.890;2022-12-20T02:50:00;10.90;99.90
41557;DHT22;27720;51.992;5.890;2022-12-20T02:52:28;10.90;99.90
41557;DHT22;27720;51.992;5.890;2022-12-20T02:54:57;10.90;99.90
41557;DHT22;27720;51.992;5.890;2022-12-20T02:57:44;10.90;99.90
41557;DHT22;27720;51.992;5.890;2022-12-20T03:00:14;11.00;99.90
41557;DHT22;27720;51.992;5.890;2022-12-20T03:02:42;11.00;99.90
41557;DHT22;27720;51.992;5.890;2022-12-20T03:05:27;10.90;99.90
41557;DHT22;27720;51.992;5.890;2022-12-20T03:07:53;11.00;99.90
41557;DHT22;27720;51.992;5.890;2022-12-20T03:10:21;10.90;99.90
41557;DHT22;27720;51.992;5.890;2022-12-20T03:12:47;11.00;99.90
41557;DHT22;27720;51.992;5.890;2022-12-20T03:15:13;11.00;99.90
41557;DHT22;27720;51.992;5.890;2022-12-20T03:17:40;11.00;99.90
41557;DHT22;27720;51.992;5.890;2022-12-20T03:20:06;11.00;99.90
41557;DHT22;27720;51.992;5.890;2022-12-20T03:22:33;11.00;99.90
41557;DHT22;27720;51.992;5.890;2022-12-20T03:25:00;11.00;99.90
41557;DHT22;27720;51.992;5.890;2022-12-20T03:27:27;11.00;99.90
41557;DHT22;27720;51.992;5.890;2022-12-20T03:29:54;11.00;99.90
41557;DHT22;27720;51.992;5.890;2022-12-20T03:32:20;11.00;99.90
41557;DHT22;27720;51.992;5.890;2022-12-20T03:34:46;11.00;99.90
41557;DHT22;27720;51.992;5.890;2022-12-20T03:37:15;11.00;99.90
41557;DHT22;27720;51.992;5.890;2022-12-20T03:39:41;11.00;99.90
41557;DHT22;27720;51.992;5.890;2022-12-20T03:42:07;11.10;99.90
41557;DHT22;27720;51.992;5.890;2022-12-20T03:44:33;11.00;99.90
41557;DHT22;27720;51.992;5.890;2022-12-20T03:46:59;11.10;99.90
41557;DHT22;27720;51.992;5.890;2022-12-20T03:49:24;11.10;99.90
41557;DHT22;27720;51.992;5.890;2022-12-20T03:51:50;11.10;99.90
41557;DHT22;27720;51.992;5.890;2022-12-20T03:54:17;11.00;99.90
41557;DHT22;27720;51.992;5.890;2022-12-20T03:57:02;11.10;99.90
41557;DHT22;27720;51.992;5.890;2022-12-20T03:59:29;11.10;99.90
41557;DHT22;27720;51.992;5.890;2022-12-20T04:01:55;11.10;99.90
41557;DHT22;27720;51.992;5.890;2022-12-20T04:04:21;11.10;99.90
41557;DHT22;27720;51.992;5.890;2022-12-20T04:06:46;11.10;99.90
41557;DHT22;27720;51.992;5.890;2022-12-20T04:09:13;11.10;99.90
41557;DHT22;27720;51.992;5.890;2022-12-20T04:11:45;11.10;99.90
41557;DHT22;27720;51.992;5.890;2022-12-20T04:14:13;11.20;99.90
41557;DHT22;27720;51.992;5.890;2022-12-20T04:16:39;11.20;99.90
41557;DHT22;27720;51.992;5.890;2022-12-20T04:19:06;11.20;99.90
41557;DHT22;27720;51.992;5.890;2022-12-20T04:21:42;11.20;99.90
41557;DHT22;27720;51.992;5.890;2022-12-20T04:24:08;11.20;99.90
41557;DHT22;27720;51.992;5.890;2022-12-20T04:27:02;11.20;99.90
41557;DHT22;27720;51.992;5.890;2022-12-20T04:29:28;11.20;99.90
41557;DHT22;27720;51.992;5.890;2022-12-20T04:31:54;11.20;99.90
41557;DHT22;27720;51.992;5.890;2022-12-20T04:34:21;11.10;99.90
41557;DHT22;27720;51.992;5.890;2022-12-20T04:36:47;11.20;99.90
41557;DHT22;27720;51.992;5.890;2022-12-20T04:39:20;11.20;99.90
41557;DHT22;27720;51.992;5.890;2022-12-20T04:42:06;11.30;99.90
41557;DHT22;27720;51.992;5.890;2022-12-20T04:44:32;11.30;99.90
41557;DHT22;27720;51.992;5.890;2022-12-20T04:46:57;11.30;99.90
41557;DHT22;27720;51.992;5.890;2022-12-20T04:49:24;11.30;99.90
41557;DHT22;27720;51.992;5.890;2022-12-20T04:51:50;11.30;99.90
41557;DHT22;27720;51.992;5.890;2022-12-20T04:54:17;11.40;99.90
41557;DHT22;27720;51.992;5.890;2022-12-20T04:56:51;11.40;99.90
41557;DHT22;27720;51.992;5.890;2022-12-20T04:59:20;11.50;99.90
41557;DHT22;27720;51.992;5.890;2022-12-20T05:01:49;11.50;99.90
41557;DHT22;27720;51.992;5.890;2022-12-20T05:04:27;11.50;99.90
41557;DHT22;27720;51.992;5.890;2022-12-20T05:06:53;11.50;99.90
41557;DHT22;27720;51.992;5.890;2022-12-20T05:09:22;11.50;99.90
41557;DHT22;27720;51.992;5.890;2022-12-20T05:11:48;11.60;99.90
41557;DHT22;27720;51.992;5.890;2022-12-20T05:14:14;11.60;99.90
41557;DHT22;27720;51.992;5.890;2022-12-20T05:16:40;11.60;99.90
41557;DHT22;27720;51.992;5.890;2022-12-20T05:19:06;11.60;99.90
41557;DHT22;27720;51.992;5.890;2022-12-20T05:21:36;11.60;99.90
41557;DHT22;27720;51.992;5.890;2022-12-20T05:24:21;11.60;99.90
41557;DHT22;27720;51.992;5.890;2022-12-20T05:27:15;11.60;99.90
41557;DHT22;27720;51.992;5.890;2022-12-20T05:29:40;11.60;99.90
41557;DHT22;27720;51.992;5.890;2022-12-20T05:32:06;11.60;99.90
41557;DHT22;27720;51.992;5.890;2022-12-20T05:34:36;11.60;99.90
41557;DHT22;27720;51.992;5.890;2022-12-20T05:37:02;11.60;99.90
41557;DHT22;27720;51.992;5.890;2022-12-20T05:39:31;11.60;99.90
41557;DHT22;27720;51.992;5.890;2022-12-20T05:42:00;11.60;99.90
41557;DHT22;27720;51.992;5.890;2022-12-20T05:44:27;11.60;99.90
41557;DHT22;27720;51.992;5.890;2022-12-20T05:46:55;11.60;99.90
41557;DHT22;27720;51.992;5.890;2022-12-20T05:49:26;11.60;99.90
41557;DHT22;27720;51.992;5.890;2022-12-20T05:51:53;11.50;99.90
41557;DHT22;27720;51.992;5.890;2022-12-20T05:54:23;11.50;99.90
41557;DHT22;27720;51.992;5.890;2022-12-20T05:57:01;11.60;99.90
41557;DHT22;27720;51.992;5.890;2022-12-20T05:59:36;11.60;99.90
41557;DHT22;27720;51.992;5.890;2022-12-20T06:02:04;11.60;99.90
41557;DHT22;27720;51.992;5.890;2022-12-20T06:04:35;11.60;99.90
41557;DHT22;27720;51.992;5.890;2022-12-20T06:07:07;11.70;99.90
41557;DHT22;27720;51.992;5.890;2022-12-20T06:09:33;11.70;99.90
41557;DHT22;27720;51.992;5.890;2022-12-20T06:12:03;11.60;99.90
41557;DHT22;27720;51.992;5.890;2022-12-20T06:14:31;11.70;99.90
41557;DHT22;27720;51.992;5.890;2022-12-20T06:16:57;11.70;99.90
41557;DHT22;27720;51.992;5.890;2022-12-20T06:19:23;11.70;99.90
41557;DHT22;27720;51.992;5.890;2022-12-20T06:21:52;11.70;99.90
41557;DHT22;27720;51.992;5.890;2022-12-20T06:24:24;11.70;99.90
41557;DHT22;27720;51.992;5.890;2022-12-20T06:26:52;11.60;99.90
41557;DHT22;27720;51.992;5.890;2022-12-20T06:29:18;11.70;99.90
41557;DHT22;27720;51.992;5.890;2022-12-20T06:31:59;11.70;99.90
41557;DHT22;27720;51.992;5.890;2022-12-20T06:34:26;11.70;99.90
41557;DHT22;27720;51.992;5.890;2022-12-20T06:36:52;11.70;99.90
41557;DHT22;27720;51.992;5.890;2022-12-20T06:39:26;11.70;99.90
41557;DHT22;27720;51.992;5.890;2022-12-20T06:42:02;11.60;99.90
41557;DHT22;27720;51.992;5.890;2022-12-20T06:44:28;11.60;99.90
41557;DHT22;27720;51.992;5.890;2022-12-20T06:46:54;11.70;99.90
41557;DHT22;27720;51.992;5.890;2022-12-20T06:49:20;11.70;99.90
41557;DHT22;27720;51.992;5.890;2022-12-20T06:51:47;11.70;99.90
41557;DHT22;27720;51.992;5.890;2022-12-20T06:54:14;11.80;99.90
41557;DHT22;27720;51.992;5.890;2022-12-20T06:56:40;11.80;99.90
41557;DHT22;27720;51.992;5.890;2022-12-20T06:59:08;11.80;99.90
41557;DHT22;27720;51.992;5.890;2022-12-20T07:01:34;11.80;99.90
41557;DHT22;27720;51.992;5.890;2022-12-20T07:03:59;11.80;99.90
41557;DHT22;27720;51.992;5.890;2022-12-20T07:06:25;11.80;99.90
41557;DHT22;27720;51.992;5.890;2022-12-20T07:08:53;11.80;99.90
41557;DHT22;27720;51.992;5.890;2022-12-20T07:11:19;11.80;99.90
41557;DHT22;27720;51.992;5.890;2022-12-20T07:13:45;11.90;99.90
41557;DHT22;27720;51.992;5.890;2022-12-20T07:16:11;11.90;99.90
41557;DHT22;27720;51.992;5.890;2022-12-20T07:18:37;11.90;99.90
41557;DHT22;27720;51.992;5.890;2022-12-20T07:21:04;11.90;99.90
41557;DHT22;27720;51.992;5.890;2022-12-20T07:23:30;11.90;99.90
41557;DHT22;27720;51.992;5.890;2022-12-20T07:25:59;11.90;99.90
41557;DHT22;27720;51.992;5.890;2022-12-20T07:28:26;11.90;99.90
41557;DHT22;27720;51.992;5.890;2022-12-20T07:30:53;11.90;99.90
41557;DHT22;27720;51.992;5.890;2022-12-20T07:33:19;11.90;99.90
41557;DHT22;27720;51.992;5.890;2022-12-20T07:35:45;11.90;99.90
41557;DHT22;27720;51.992;5.890;2022-12-20T07:38:13;11.90;99.90
41557;DHT22;27720;51.992;5.890;2022-12-20T07:40:41;11.90;99.90
41557;DHT22;27720;51.992;5.890;2022-12-20T07:43:08;11.90;99.90
41557;DHT22;27720;51.992;5.890;2022-12-20T07:45:34;11.90;99.90
41557;DHT22;27720;51.992;5.890;2022-12-20T07:48:00;11.90;99.90
41557;DHT22;27720;51.992;5.890;2022-12-20T07:50:27;11.90;99.90
41557;DHT22;27720;51.992;5.890;2022-12-20T07:52:54;11.90;99.90
41557;DHT22;27720;51.992;5.890;2022-12-20T07:55:20;11.90;99.90
41557;DHT22;27720;51.992;5.890;2022-12-20T07:57:53;12.00;99.90
41557;DHT22;27720;51.992;5.890;2022-12-20T08:00:20;12.00;99.90
41557;DHT22;27720;51.992;5.890;2022-12-20T08:05:20;12.00;99.90
41557;DHT22;27720;51.992;5.890;2022-12-20T08:07:46;12.00;99.90
41557;DHT22;27720;51.992;5.890;2022-12-20T08:10:14;12.00;99.90
41557;DHT22;27720;51.992;5.890;2022-12-20T08:12:42;12.00;99.90
41557;DHT22;27720;51.992;5.890;2022-12-20T08:15:10;12.00;99.90
41557;DHT22;27720;51.992;5.890;2022-12-20T08:17:36;12.00;99.90
41557;DHT22;27720;51.992;5.890;2022-12-20T08:20:02;12.00;99.90
41557;DHT22;27720;51.992;5.890;2022-12-20T08:22:30;12.00;99.90
41557;DHT22;27720;51.992;5.890;2022-12-20T08:24:56;12.00;99.90
41557;DHT22;27720;51.992;5.890;2022-12-20T08:27:22;12.00;99.90
41557;DHT22;27720;51.992;5.890;2022-12-20T08:29:47;12.00;99.90
41557;DHT22;27720;51.992;5.890;2022-12-20T08:32:14;12.00;99.90
41557;DHT22;27720;51.992;5.890;2022-12-20T08:34:40;11.90;99.90
41557;DHT22;27720;51.992;5.890;2022-12-20T08:37:06;12.00;99.90
41557;DHT22;27720;51.992;5.890;2022-12-20T08:39:32;11.90;99.90
41557;DHT22;27720;51.992;5.890;2022-12-20T08:42:03;11.90;99.90
41557;DHT22;27720;51.992;5.890;2022-12-20T08:44:29;11.90;99.90
41557;DHT22;27720;51.992;5.890;2022-12-20T08:46:55;11.90;99.90
41557;DHT22;27720;51.992;5.890;2022-12-20T08:49:21;11.90;99.90
41557;DHT22;27720;51.992;5.890;2022-12-20T08:51:47;11.90;99.90
41557;DHT22;27720;51.992;5.890;2022-12-20T08:54:12;11.90;99.90
41557;DHT22;27720;51.992;5.890;2022-12-20T08:56:38;11.90;99.90
41557;DHT22;27720;51.992;5.890;2022-12-20T08:59:04;11.90;99.90
41557;DHT22;27720;51.992;5.890;2022-12-20T09:01:30;11.90;99.90
41557;DHT22;27720;51.992;5.890;2022-12-20T09:03:58;12.00;99.90
41557;DHT22;27720;51.992;5.890;2022-12-20T09:06:25;11.90;99.90
41557;DHT22;27720;51.992;5.890;2022-12-20T09:08:51;12.00;99.90
41557;DHT22;27720;51.992;5.890;2022-12-20T09:11:23;11.90;99.90
41557;DHT22;27720;51.992;5.890;2022-12-20T09:13:51;11.90;99.90
41557;DHT22;27720;51.992;5.890;2022-12-20T09:16:19;11.90;99.90
41557;DHT22;27720;51.992;5.890;2022-12-20T09:18:49;11.90;99.90
41557;DHT22;27720;51.992;5.890;2022-12-20T09:21:19;11.80;99.90
41557;DHT22;27720;51.992;5.890;2022-12-20T09:23:46;11.80;99.90
41557;DHT22;27720;51.992;5.890;2022-12-20T09:26:15;11.80;99.90
41557;DHT22;27720;51.992;5.890;2022-12-20T09:28:42;11.80;99.90
41557;DHT22;27720;51.992;5.890;2022-12-20T09:31:14;11.80;99.90
41557;DHT22;27720;51.992;5.890;2022-12-20T09:33:41;11.70;99.90
41557;DHT22;27720;51.992;5.890;2022-12-20T09:36:12;11.70;99.90
41557;DHT22;27720;51.992;5.890;2022-12-20T09:38:38;11.70;99.90
41557;DHT22;27720;51.992;5.890;2022-12-20T09:41:06;11.70;99.90
41557;DHT22;27720;51.992;5.890;2022-12-20T09:43:33;11.70;99.90
41557;DHT22;27720;51.992;5.890;2022-12-20T09:46:00;11.60;99.90
41557;DHT22;27720;51.992;5.890;2022-12-20T09:48:35;11.70;99.90
41557;DHT22;27720;51.992;5.890;2022-12-20T09:54:07;11.70;99.90
41557;DHT22;27720;51.992;5.890;2022-12-20T09:56:45;11.70;99.90
41557;DHT22;27720;51.992;5.890;2022-12-20T09:59:18;11.50;99.90
41557;DHT22;27720;51.992;5.890;2022-12-20T10:01:46;11.60;99.90
41557;DHT22;27720;51.992;5.890;2022-12-20T10:09:42;11.70;99.90
41557;DHT22;27720;51.992;5.890;2022-12-20T10:12:26;11.70;99.90
41557;DHT22;27720;51.992;5.890;2022-12-20T10:15:13;11.70;99.90
41557;DHT22;27720;51.992;5.890;2022-12-20T10:21:10;11.70;99.90
41557;DHT22;27720;51.992;5.890;2022-12-20T10:23:57;11.70;99.90
41557;DHT22;27720;51.992;5.890;2022-12-20T10:26:25;11.60;99.90
41557;DHT22;27720;51.992;5.890;2022-12-20T10:28:51;11.70;99.90
41557;DHT22;27720;51.992;5.890;2022-12-20T10:31:17;11.70;99.90
41557;DHT22;27720;51.992;5.890;2022-12-20T10:33:44;11.70;99.90
41557;DHT22;27720;51.992;5.890;2022-12-20T10:36:23;11.70;99.90
41557;DHT22;27720;51.992;5.890;2022-12-20T10:38:57;11.60;99.90
41557;DHT22;27720;51.992;5.890;2022-12-20T10:41:25;11.60;99.90
41557;DHT22;27720;51.992;5.890;2022-12-20T10:44:05;11.70;99.90
41557;DHT22;27720;51.992;5.890;2022-12-20T10:49:35;11.70;99.90
41557;DHT22;27720;51.992;5.890;2022-12-20T10:52:10;11.70;99.90
41557;DHT22;27720;51.992;5.890;2022-12-20T10:54:42;11.70;99.90
41557;DHT22;27720;51.992;5.890;2022-12-20T10:57:22;11.70;99.90
41557;DHT22;27720;51.992;5.890;2022-12-20T11:02:28;11.70;99.90
41557;DHT22;27720;51.992;5.890;2022-12-20T11:05:17;11.70;99.90
41557;DHT22;27720;51.992;5.890;2022-12-20T11:07:59;11.60;99.90
41557;DHT22;27720;51.992;5.890;2022-12-20T11:10:31;11.60;99.90
41557;DHT22;27720;51.992;5.890;2022-12-20T11:12:59;11.70;99.90
41557;DHT22;27720;51.992;5.890;2022-12-20T11:15:29;11.70;99.90
41557;DHT22;27720;51.992;5.890;2022-12-20T11:18:11;11.70;99.90
41557;DHT22;27720;51.992;5.890;2022-12-20T11:26:08;11.70;99.90
41557;DHT22;27720;51.992;5.890;2022-12-20T11:33:52;11.70;99.90
41557;DHT22;27720;51.992;5.890;2022-12-20T11:42:37;11.80;99.90
41557;DHT22;27720;51.992;5.890;2022-12-20T11:45:27;11.80;99.90
41557;DHT22;27720;51.992;5.890;2022-12-20T11:53:52;11.90;99.90
41557;DHT22;27720;51.992;5.890;2022-12-20T11:56:29;11.80;99.90
41557;DHT22;27720;51.992;5.890;2022-12-20T12:02:39;11.90;99.90
41557;DHT22;27720;51.992;5.890;2022-12-20T12:05:19;11.90;99.90
41557;DHT22;27720;51.992;5.890;2022-12-20T12:07:50;11.90;99.90
41557;DHT22;27720;51.992;5.890;2022-12-20T12:10:21;11.80;99.90
41557;DHT22;27720;51.992;5.890;2022-12-20T12:13:52;11.80;99.90
41557;DHT22;27720;51.992;5.890;2022-12-20T12:16:10;11.90;99.90
41557;DHT22;27720;51.992;5.890;2022-12-20T12:18:38;11.90;99.90
41557;DHT22;27720;51.992;5.890;2022-12-20T12:21:27;11.80;99.90
41557;DHT22;27720;51.992;5.890;2022-12-20T12:24:04;11.90;99.90
41557;DHT22;27720;51.992;5.890;2022-12-20T12:26:38;11.80;99.90
41557;DHT22;27720;51.992;5.890;2022-12-20T12:45:35;11.90;99.90
41557;DHT22;27720;51.992;5.890;2022-12-20T12:48:16;11.90;99.90
41557;DHT22;27720;51.992;5.890;2022-12-20T12:50:54;11.90;99.90
41557;DHT22;27720;51.992;5.890;2022-12-20T12:53:43;11.90;99.90
41557;DHT22;27720;51.992;5.890;2022-12-20T13:01:52;12.00;99.90
41557;DHT22;27720;51.992;5.890;2022-12-20T13:11:54;11.90;99.90
41557;DHT22;27720;51.992;5.890;2022-12-20T13:17:37;12.00;99.90
41557;DHT22;27720;51.992;5.890;2022-12-20T13:19:49;12.00;99.90
41557;DHT22;27720;51.992;5.890;2022-12-20T13:25:03;12.00;99.90
41557;DHT22;27720;51.992;5.890;2022-12-20T13:27:49;12.10;99.90
41557;DHT22;27720;51.992;5.890;2022-12-20T13:30:22;12.00;99.90
41557;DHT22;27720;51.992;5.890;2022-12-20T13:33:13;12.00;99.90
41557;DHT22;27720;51.992;5.890;2022-12-20T13:35:53;12.10;99.90
41557;DHT22;27720;51.992;5.890;2022-12-20T13:41:47;12.10;99.90
41557;DHT22;27720;51.992;5.890;2022-12-20T13:49:31;12.10;99.90
41557;DHT22;27720;51.992;5.890;2022-12-20T13:52:11;12.00;99.90
41557;DHT22;27720;51.992;5.890;2022-12-20T13:54:47;12.10;99.90
41557;DHT22;27720;51.992;5.890;2022-12-20T13:57:16;12.10;99.90
41557;DHT22;27720;51.992;5.890;2022-12-20T13:59:47;12.00;99.90
41557;DHT22;27720;51.992;5.890;2022-12-20T14:02:28;12.10;99.90
41557;DHT22;27720;51.992;5.890;2022-12-20T14:04:56;12.10;99.90
41557;DHT22;27720;51.992;5.890;2022-12-20T14:07:24;11.90;99.90
41557;DHT22;27720;51.992;5.890;2022-12-20T14:09:56;12.00;99.90
41557;DHT22;27720;51.992;5.890;2022-12-20T14:12:22;12.00;99.90
41557;DHT22;27720;51.992;5.890;2022-12-20T14:14:50;12.00;99.90
41557;DHT22;27720;51.992;5.890;2022-12-20T14:17:24;12.00;99.90
41557;DHT22;27720;51.992;5.890;2022-12-20T14:22:58;12.10;99.90
41557;DHT22;27720;51.992;5.890;2022-12-20T14:28:00;12.10;99.90
41557;DHT22;27720;51.992;5.890;2022-12-20T14:30:34;12.00;99.90
41557;DHT22;27720;51.992;5.890;2022-12-20T14:33:01;12.10;99.90
41557;DHT22;27720;51.992;5.890;2022-12-20T14:35:27;12.10;99.90
41557;DHT22;27720;51.992;5.890;2022-12-20T14:37:57;12.10;99.90
41557;DHT22;27720;51.992;5.890;2022-12-20T14:40:26;12.10;99.90
41557;DHT22;27720;51.992;5.890;2022-12-20T14:42:53;12.10;99.90
41557;DHT22;27720;51.992;5.890;2022-12-20T14:45:26;12.10;99.90
41557;DHT22;27720;51.992;5.890;2022-12-20T14:48:06;12.10;99.90
41557;DHT22;27720;51.992;5.890;2022-12-20T14:50:40;12.10;99.90
41557;DHT22;27720;51.992;5.890;2022-12-20T14:53:18;12.10;99.90
41557;DHT22;27720;51.992;5.890;2022-12-20T14:55:45;12.10;99.90
41557;DHT22;27720;51.992;5.890;2022-12-20T14:58:27;12.10;99.90
41557;DHT22;27720;51.992;5.890;2022-12-20T15:03:57;12.10;99.90
41557;DHT22;27720;51.992;5.890;2022-12-20T15:06:42;12.10;99.90
41557;DHT22;27720;51.992;5.890;2022-12-20T15:09:11;12.10;99.90
41557;DHT22;27720;51.992;5.890;2022-12-20T15:11:54;12.00;99.90
41557;DHT22;27720;51.992;5.890;2022-12-20T15:14:35;12.00;99.90
41557;DHT22;27720;51.992;5.890;2022-12-20T15:17:02;12.10;99.90
41557;DHT22;27720;51.992;5.890;2022-12-20T15:19:31;12.00;99.90
41557;DHT22;27720;51.992;5.890;2022-12-20T15:22:00;12.00;99.90
41557;DHT22;27720;51.992;5.890;2022-12-20T15:24:27;12.00;99.90
41557;DHT22;27720;51.992;5.890;2022-12-20T15:26:53;12.00;99.90
41557;DHT22;27720;51.992;5.890;2022-12-20T15:29:28;12.10;99.90
41557;DHT22;27720;51.992;5.890;2022-12-20T15:32:06;12.10;99.90
41557;DHT22;27720;51.992;5.890;2022-12-20T15:34:44;12.10;99.90
41557;DHT22;27720;51.992;5.890;2022-12-20T15:37:15;12.10;99.90
41557;DHT22;27720;51.992;5.890;2022-12-20T15:39:45;12.10;99.90
41557;DHT22;27720;51.992;5.890;2022-12-20T15:42:15;12.10;99.90
41557;DHT22;27720;51.992;5.890;2022-12-20T15:44:47;12.10;99.90
41557;DHT22;27720;51.992;5.890;2022-12-20T15:47:16;12.10;99.90
41557;DHT22;27720;51.992;5.890;2022-12-20T15:49:42;12.10;99.90
41557;DHT22;27720;51.992;5.890;2022-12-20T15:52:22;12.10;99.90
41557;DHT22;27720;51.992;5.890;2022-12-20T15:54:56;12.10;99.90
41557;DHT22;27720;51.992;5.890;2022-12-20T15:57:22;12.00;99.90
41557;DHT22;27720;51.992;5.890;2022-12-20T15:59:48;11.90;99.90
41557;DHT22;27720;51.992;5.890;2022-12-20T16:02:20;12.00;99.90
41557;DHT22;27720;51.992;5.890;2022-12-20T16:04:55;12.00;99.90
41557;DHT22;27720;51.992;5.890;2022-12-20T16:07:28;12.00;99.90
41557;DHT22;27720;51.992;5.890;2022-12-20T16:09:54;12.00;99.90
41557;DHT22;27720;51.992;5.890;2022-12-20T16:12:26;12.00;99.90
41557;DHT22;27720;51.992;5.890;2022-12-20T16:14:56;12.00;99.90
41557;DHT22;27720;51.992;5.890;2022-12-20T16:17:22;11.90;99.90
41557;DHT22;27720;51.992;5.890;2022-12-20T16:19:48;12.00;99.90
41557;DHT22;27720;51.992;5.890;2022-12-20T16:22:23;11.90;99.90
41557;DHT22;27720;51.992;5.890;2022-12-20T16:24:52;12.00;99.90
41557;DHT22;27720;51.992;5.890;2022-12-20T16:27:18;11.90;99.90
41557;DHT22;27720;51.992;5.890;2022-12-20T16:29:44;11.90;99.90
41557;DHT22;27720;51.992;5.890;2022-12-20T16:32:18;11.90;99.90
41557;DHT22;27720;51.992;5.890;2022-12-20T16:34:44;12.00;99.90
41557;DHT22;27720;51.992;5.890;2022-12-20T16:37:10;12.00;99.90
41557;DHT22;27720;51.992;5.890;2022-12-20T16:39:36;12.00;99.90
41557;DHT22;27720;51.992;5.890;2022-12-20T16:42:02;12.00;99.90
41557;DHT22;27720;51.992;5.890;2022-12-20T18:47:40;9.20;99.90
41557;DHT22;27720;51.992;5.890;2022-12-20T18:50:06;9.40;99.90
41557;DHT22;27720;51.992;5.890;2022-12-20T18:52:32;9.70;99.90
41557;DHT22;27720;51.992;5.890;2022-12-20T18:54:58;10.10;99.90
41557;DHT22;27720;51.992;5.890;2022-12-20T18:57:24;10.40;99.90
41557;DHT22;27720;51.992;5.890;2022-12-20T18:59:50;10.60;99.90
41557;DHT22;27720;51.992;5.890;2022-12-20T19:02:16;10.90;99.90
41557;DHT22;27720;51.992;5.890;2022-12-20T19:04:42;11.00;99.90
41557;DHT22;27720;51.992;5.890;2022-12-20T19:07:08;11.20;99.90
41557;DHT22;27720;51.992;5.890;2022-12-20T19:09:35;11.30;99.90
41557;DHT22;27720;51.992;5.890;2022-12-20T19:12:02;11.40;99.90
41557;DHT22;27720;51.992;5.890;2022-12-20T19:14:28;11.40;99.90
41557;DHT22;27720;51.992;5.890;2022-12-20T19:16:53;11.50;99.90
41557;DHT22;27720;51.992;5.890;2022-12-20T19:19:19;11.60;99.90
41557;DHT22;27720;51.992;5.890;2022-12-20T19:21:45;11.60;99.90
41557;DHT22;27720;51.992;5.890;2022-12-20T19:24:13;11.70;99.90
41557;DHT22;27720;51.992;5.890;2022-12-20T19:26:39;11.70;99.90
41557;DHT22;27720;51.992;5.890;2022-12-20T19:29:06;11.70;99.90
41557;DHT22;27720;51.992;5.890;2022-12-20T19:31:34;11.70;99.90
41557;DHT22;27720;51.992;5.890;2022-12-20T19:34:04;11.70;99.90
41557;DHT22;27720;51.992;5.890;2022-12-20T19:36:44;11.70;99.90
41557;DHT22;27720;51.992;5.890;2022-12-20T19:39:19;11.70;99.90
41557;DHT22;27720;51.992;5.890;2022-12-20T19:41:45;11.80;99.90
41557;DHT22;27720;51.992;5.890;2022-12-20T19:44:11;11.70;99.90